createdAt,value
2022-12-18T00:02:15.154Z,3.97
2022-12-18T00:04:44.340Z,4.28
2022-12-18T00:07:13.475Z,4.20
2022-12-18T00:09:42.788Z,4.43
2022-12-18T00:14:49.446Z,3.90
2022-12-18T00:17:19.026Z,4.07
2022-12-18T00:19:48.425Z,4.47
2022-12-18T00:22:17.607Z,4.47
2022-12-18T00:24:46.813Z,4.38
2022-12-18T00:27:15.985Z,4.22
2022-12-18T00:29:45.290Z,4.38
2022-12-18T00:32:15.914Z,4.00
2022-12-18T00:34:45.212Z,4.07
2022-12-18T00:37:19.761Z,4.07
2022-12-18T00:39:53.353Z,5.10
2022-12-18T00:42:40.579Z,3.95
2022-12-18T00:45:12.848Z,3.85
2022-12-18T00:47:44.070Z,4.25
2022-12-18T00:50:13.890Z,4.43
2022-12-18T00:52:44.096Z,4.88
2022-12-18T00:55:14.192Z,4.13
2022-12-18T00:57:43.635Z,3.85
2022-12-18T01:00:15.749Z,4.05
2022-12-18T01:02:46.675Z,4.13
2022-12-18T01:05:16.743Z,3.80
2022-12-18T01:07:45.916Z,4.38
2022-12-18T01:10:15.861Z,4.20
2022-12-18T01:12:45.041Z,3.85
2022-12-18T01:15:16.611Z,4.53
2022-12-18T01:17:47.267Z,3.90
2022-12-18T01:20:16.911Z,4.22
2022-12-18T01:22:46.241Z,4.10
2022-12-18T01:25:15.535Z,4.10
2022-12-18T01:27:46.241Z,4.40
2022-12-18T01:30:15.782Z,4.47
2022-12-18T01:32:46.424Z,4.82
2022-12-18T01:35:15.723Z,3.80
2022-12-18T01:37:44.917Z,3.90
2022-12-18T01:40:14.380Z,3.83
2022-12-18T01:42:43.650Z,4.45
2022-12-18T01:45:28.781Z,5.10
2022-12-18T01:48:02.993Z,4.30
2022-12-18T01:50:36.250Z,4.25
2022-12-18T01:53:09.965Z,5.30
2022-12-18T01:55:42.492Z,4.47
2022-12-18T01:58:12.972Z,4.53
2022-12-18T02:00:42.591Z,4.75
2022-12-18T02:03:13.695Z,4.47
2022-12-18T02:05:48.069Z,4.40
2022-12-18T02:08:23.091Z,4.18
2022-12-18T02:11:02.667Z,5.25
2022-12-18T02:13:43.409Z,4.85
2022-12-18T02:16:24.261Z,4.60
2022-12-18T02:19:01.462Z,4.70
2022-12-18T02:21:39.859Z,5.00
2022-12-18T02:24:26.872Z,5.00
2022-12-18T02:27:00.596Z,5.13
2022-12-18T02:29:36.766Z,4.65
2022-12-18T02:32:09.530Z,5.10
2022-12-18T02:34:42.097Z,5.20
2022-12-18T02:37:20.211Z,4.90
2022-12-18T02:39:52.162Z,5.05
2022-12-18T02:42:24.122Z,4.53
2022-12-18T02:44:54.797Z,4.72
2022-12-18T02:47:30.449Z,4.93
2022-12-18T02:50:07.246Z,5.80
2022-12-18T02:52:44.464Z,4.95
2022-12-18T02:55:23.210Z,5.50
2022-12-18T02:58:00.919Z,4.88
2022-12-18T03:00:41.786Z,5.40
2022-12-18T03:03:16.763Z,4.47
2022-12-18T03:05:52.857Z,4.60
2022-12-18T03:08:25.208Z,4.35
2022-12-18T03:11:00.619Z,5.18
2022-12-18T03:13:39.001Z,4.90
2022-12-18T03:16:13.336Z,5.00
2022-12-18T03:18:48.239Z,4.60
2022-12-18T03:21:20.543Z,4.43
2022-12-18T03:23:53.205Z,5.32
2022-12-18T03:26:28.779Z,5.85
2022-12-18T03:29:09.233Z,5.22
2022-12-18T03:31:42.195Z,4.88
2022-12-18T03:34:15.004Z,4.88
2022-12-18T03:36:48.561Z,5.20
2022-12-18T03:39:18.234Z,4.93
2022-12-18T03:42:04.820Z,4.85
2022-12-18T03:44:46.377Z,4.78
2022-12-18T03:47:19.991Z,4.55
2022-12-18T03:49:52.944Z,4.45
2022-12-18T03:52:29.183Z,4.93
2022-12-18T03:55:02.448Z,5.05
2022-12-18T03:57:33.823Z,5.13
2022-12-18T04:00:09.600Z,4.80
2022-12-18T04:02:59.578Z,5.10
2022-12-18T04:05:38.111Z,4.88
2022-12-18T04:08:09.099Z,4.63
2022-12-18T04:10:41.912Z,4.85
2022-12-18T04:13:12.260Z,5.05
2022-12-18T04:15:43.408Z,4.85
2022-12-18T04:18:16.845Z,4.63
2022-12-18T04:20:46.861Z,4.43
2022-12-18T04:23:16.118Z,4.53
2022-12-18T04:25:45.519Z,4.57
2022-12-18T04:28:19.942Z,4.32
2022-12-18T04:30:52.048Z,4.40
2022-12-18T04:33:22.801Z,5.53
2022-12-18T04:35:52.463Z,4.30
2022-12-18T04:38:21.772Z,4.55
2022-12-18T04:40:57.968Z,4.30
2022-12-18T04:43:29.623Z,4.38
2022-12-18T04:46:06.480Z,4.93
2022-12-18T04:48:36.468Z,4.88
2022-12-18T04:51:06.130Z,4.88
2022-12-18T04:53:38.851Z,4.53
2022-12-18T04:56:10.091Z,4.60
2022-12-18T04:58:39.451Z,4.30
2022-12-18T05:01:11.196Z,4.53
2022-12-18T05:03:41.186Z,4.70
2022-12-18T05:06:11.295Z,4.60
2022-12-18T05:08:40.807Z,4.70
2022-12-18T05:11:12.405Z,4.93
2022-12-18T05:13:42.128Z,4.95
2022-12-18T05:16:13.471Z,4.85
2022-12-18T05:18:43.295Z,4.55
2022-12-18T05:21:12.551Z,4.70
2022-12-18T05:23:42.196Z,5.28
2022-12-18T05:26:16.508Z,4.60
2022-12-18T05:28:46.075Z,4.47
2022-12-18T05:31:17.167Z,5.00
2022-12-18T05:33:46.428Z,5.50
2022-12-18T05:36:15.532Z,4.70
2022-12-18T05:38:44.810Z,4.70
2022-12-18T05:41:14.111Z,4.35
2022-12-18T05:43:43.958Z,5.30
2022-12-18T05:46:17.223Z,4.28
2022-12-18T05:48:47.000Z,5.22
2022-12-18T05:51:18.793Z,5.38
2022-12-18T05:53:48.472Z,4.70
2022-12-18T05:56:21.679Z,5.10
2022-12-18T05:58:54.723Z,4.75
2022-12-18T06:01:27.701Z,5.35
2022-12-18T06:03:57.809Z,4.60
2022-12-18T06:06:28.202Z,5.10
2022-12-18T06:08:58.859Z,4.82
2022-12-18T06:11:29.273Z,5.30
2022-12-18T06:14:00.306Z,4.82
2022-12-18T06:16:31.973Z,5.32
2022-12-18T06:19:02.344Z,4.78
2022-12-18T06:21:32.282Z,5.47
2022-12-18T06:24:03.095Z,4.93
2022-12-18T06:26:32.411Z,5.10
2022-12-18T06:29:01.832Z,4.83
2022-12-18T06:31:32.713Z,5.15
2022-12-18T06:34:04.973Z,4.90
2022-12-18T06:36:34.325Z,5.00
2022-12-18T06:39:03.492Z,4.82
2022-12-18T06:41:32.803Z,4.80
2022-12-18T06:44:01.991Z,4.45
2022-12-18T06:46:33.403Z,4.20
2022-12-18T06:49:02.636Z,4.32
2022-12-18T06:51:32.089Z,4.40
2022-12-18T06:54:01.334Z,4.47
2022-12-18T06:56:30.771Z,4.70
2022-12-18T06:59:00.128Z,5.47
2022-12-18T07:01:29.440Z,5.60
2022-12-18T07:04:00.616Z,5.28
2022-12-18T07:06:29.837Z,4.03
2022-12-18T07:08:58.996Z,5.33
2022-12-18T07:11:28.358Z,4.47
2022-12-18T07:13:57.547Z,3.95
2022-12-18T07:16:26.937Z,3.35
2022-12-18T07:18:57.574Z,4.78
2022-12-18T07:21:28.498Z,3.53
2022-12-18T07:23:57.687Z,3.30
2022-12-18T07:26:27.515Z,4.53
2022-12-18T07:28:59.115Z,3.58
2022-12-18T07:31:29.348Z,4.55
2022-12-18T07:33:58.782Z,3.30
2022-12-18T07:36:29.547Z,3.03
2022-12-18T07:38:59.014Z,3.03
2022-12-18T07:41:28.221Z,3.40
2022-12-18T07:43:57.519Z,3.05
2022-12-18T07:46:26.754Z,2.97
2022-12-18T07:48:55.980Z,3.20
2022-12-18T07:51:25.252Z,3.47
2022-12-18T07:53:55.850Z,3.40
2022-12-18T07:56:28.232Z,3.40
2022-12-18T07:59:00.301Z,3.03
2022-12-18T08:01:29.988Z,3.40
2022-12-18T08:04:00.127Z,6.85
2022-12-18T08:06:29.383Z,4.55
2022-12-18T08:09:00.231Z,5.50
2022-12-18T08:11:31.024Z,5.82
2022-12-18T08:14:00.629Z,4.63
2022-12-18T08:16:30.232Z,4.78
2022-12-18T08:18:59.734Z,4.72
2022-12-18T08:21:31.403Z,15.15
2022-12-18T08:24:03.402Z,7.00
2022-12-18T08:26:33.648Z,7.20
2022-12-18T08:29:03.489Z,6.57
2022-12-18T08:31:34.186Z,5.17
2022-12-18T08:34:03.533Z,5.53
2022-12-18T08:36:32.831Z,5.50
2022-12-18T08:39:03.745Z,4.40
2022-12-18T08:41:33.053Z,4.32
2022-12-18T08:44:20.655Z,6.47
2022-12-18T08:46:50.138Z,4.38
2022-12-18T08:49:19.461Z,5.93
2022-12-18T08:51:48.808Z,4.82
2022-12-18T08:54:19.484Z,5.03
2022-12-18T08:56:48.744Z,5.60
2022-12-18T08:59:20.045Z,4.70
2022-12-18T09:01:50.064Z,8.43
2022-12-18T09:04:19.890Z,7.63
2022-12-18T09:06:49.514Z,6.47
2022-12-18T09:09:20.655Z,4.60
2022-12-18T09:11:49.902Z,8.65
2022-12-18T09:14:19.211Z,6.00
2022-12-18T09:16:48.493Z,8.88
2022-12-18T09:19:17.869Z,7.45
2022-12-18T09:21:48.418Z,5.28
2022-12-18T09:24:20.061Z,9.30
2022-12-18T09:26:51.497Z,16.33
2022-12-18T09:29:23.214Z,8.13
2022-12-18T09:31:52.850Z,32.28
2022-12-18T09:34:22.985Z,9.82
2022-12-18T09:36:52.575Z,8.30
2022-12-18T09:39:24.119Z,6.78
2022-12-18T09:41:55.937Z,9.02
2022-12-18T09:44:28.605Z,6.13
2022-12-18T09:47:06.231Z,7.70
2022-12-18T09:49:39.809Z,11.02
2022-12-18T09:52:15.585Z,7.93
2022-12-18T09:54:49.333Z,7.85
2022-12-18T09:57:22.205Z,7.75
2022-12-18T09:59:57.378Z,6.50
2022-12-18T10:02:28.990Z,6.28
2022-12-18T10:05:07.563Z,6.22
2022-12-18T10:07:46.011Z,5.85
2022-12-18T10:10:26.503Z,5.20
2022-12-18T10:13:04.905Z,5.53
2022-12-18T10:15:42.409Z,8.02
2022-12-18T10:18:26.064Z,8.52
2022-12-18T10:21:01.402Z,5.97
2022-12-18T10:23:42.456Z,12.07
2022-12-18T10:26:17.251Z,9.50
2022-12-18T10:28:47.465Z,10.38
2022-12-18T10:31:19.410Z,5.20
2022-12-18T10:33:49.072Z,5.65
2022-12-18T10:36:18.549Z,6.25
2022-12-18T10:38:47.845Z,6.55
2022-12-18T10:41:29.317Z,10.77
2022-12-18T10:44:19.107Z,5.72
2022-12-18T10:46:50.192Z,8.02
2022-12-18T10:49:26.672Z,7.13
2022-12-18T10:52:08.175Z,10.95
2022-12-18T10:54:38.611Z,6.90
2022-12-18T10:57:29.691Z,3.60
2022-12-18T11:00:00.929Z,4.03
2022-12-18T11:02:37.376Z,6.63
2022-12-18T11:05:26.749Z,4.40
2022-12-18T11:07:58.218Z,6.15
2022-12-18T11:10:33.141Z,6.75
2022-12-18T11:13:15.155Z,7.13
2022-12-18T11:15:44.868Z,13.40
2022-12-18T11:18:21.575Z,12.02
2022-12-18T11:20:58.708Z,14.15
2022-12-18T11:23:29.400Z,12.13
2022-12-18T11:26:03.730Z,12.20
2022-12-18T11:28:46.040Z,8.70
2022-12-18T11:31:24.885Z,14.43
2022-12-18T11:34:28.197Z,15.02
2022-12-18T11:36:55.665Z,16.98
2022-12-18T11:39:30.983Z,17.95
2022-12-18T11:42:12.883Z,16.63
2022-12-18T11:44:50.613Z,24.63
2022-12-18T11:47:30.853Z,26.38
2022-12-18T11:50:04.190Z,17.63
2022-12-18T11:52:39.426Z,18.25
2022-12-18T11:55:16.310Z,16.90
2022-12-18T11:57:56.570Z,10.93
2022-12-18T12:00:27.654Z,11.95
2022-12-18T12:03:20.610Z,8.32
2022-12-18T12:06:07.079Z,11.88
2022-12-18T12:08:49.968Z,15.88
2022-12-18T12:11:27.057Z,8.25
2022-12-18T12:14:07.427Z,7.53
2022-12-18T12:16:45.936Z,13.95
2022-12-18T12:19:32.643Z,12.27
2022-12-18T12:22:11.965Z,8.02
2022-12-18T12:24:55.012Z,9.35
2022-12-18T12:27:32.947Z,6.22
2022-12-18T12:30:08.569Z,11.65
2022-12-18T12:32:56.752Z,7.70
2022-12-18T12:35:39.867Z,9.68
2022-12-18T12:38:17.036Z,7.18
2022-12-18T12:40:56.616Z,8.10
2022-12-18T12:43:37.127Z,6.72
2022-12-18T12:46:09.190Z,6.22
2022-12-18T12:48:49.320Z,5.65
2022-12-18T12:51:22.008Z,6.10
2022-12-18T12:53:52.986Z,4.15
2022-12-18T12:56:24.539Z,8.68
2022-12-18T12:59:00.926Z,6.68
2022-12-18T13:01:38.378Z,6.88
2022-12-18T13:04:21.714Z,7.15
2022-12-18T13:06:59.232Z,11.25
2022-12-18T13:09:35.007Z,11.23
2022-12-18T13:12:28.604Z,15.27
2022-12-18T13:15:16.347Z,7.80
2022-12-18T13:17:46.244Z,7.90
2022-12-18T13:20:18.222Z,6.03
2022-12-18T13:22:49.742Z,11.10
2022-12-18T13:25:37.317Z,11.10
2022-12-18T13:28:10.691Z,11.00
2022-12-18T13:30:57.029Z,7.25
2022-12-18T13:36:43.222Z,6.25
2022-12-18T13:42:59.382Z,4.82
2022-12-18T13:45:47.444Z,14.00
2022-12-18T13:48:19.737Z,12.05
2022-12-18T13:50:54.356Z,15.07
2022-12-18T13:53:28.752Z,10.60
2022-12-18T13:55:58.711Z,10.95
2022-12-18T13:58:27.938Z,8.75
2022-12-18T14:00:57.890Z,8.68
2022-12-18T14:03:29.492Z,8.75
2022-12-18T14:06:03.707Z,8.55
2022-12-18T14:08:40.832Z,13.85
2022-12-18T14:11:21.798Z,11.93
2022-12-18T14:13:52.664Z,11.38
2022-12-18T14:16:22.236Z,8.10
2022-12-18T14:19:02.644Z,8.60
2022-12-18T14:21:49.253Z,9.88
2022-12-18T14:24:21.835Z,9.68
2022-12-18T14:26:52.459Z,8.73
2022-12-18T14:29:25.368Z,6.55
2022-12-18T14:32:15.031Z,11.25
2022-12-18T14:34:47.422Z,7.65
2022-12-18T14:37:18.544Z,12.25
2022-12-18T14:40:10.472Z,7.80
2022-12-18T14:42:41.440Z,6.28
2022-12-18T14:45:41.607Z,9.57
2022-12-18T14:48:22.873Z,7.38
2022-12-18T14:51:04.714Z,6.70
2022-12-18T14:53:40.723Z,4.50
2022-12-18T14:56:24.292Z,7.63
2022-12-18T14:58:56.484Z,7.38
2022-12-18T15:01:29.575Z,5.03
2022-12-18T15:04:00.969Z,4.82
2022-12-18T15:06:34.380Z,4.72
2022-12-18T15:09:05.982Z,4.70
2022-12-18T15:11:46.102Z,4.00
2022-12-18T15:14:41.539Z,5.68
2022-12-18T15:17:21.390Z,3.78
2022-12-18T15:19:54.960Z,5.47
2022-12-18T15:22:28.408Z,3.30
2022-12-18T15:24:59.000Z,4.13
2022-12-18T15:27:33.486Z,7.32
2022-12-18T15:30:05.407Z,3.28
2022-12-18T15:32:35.143Z,3.10
2022-12-18T15:35:14.098Z,3.58
2022-12-18T15:37:44.989Z,4.32
2022-12-18T15:40:19.278Z,3.08
2022-12-18T15:43:11.520Z,4.35
2022-12-18T15:45:40.856Z,2.70
2022-12-18T15:48:22.443Z,4.00
2022-12-18T15:50:53.389Z,4.18
2022-12-18T15:53:22.983Z,2.65
2022-12-18T15:56:10.031Z,9.60
2022-12-18T15:58:42.151Z,3.15
2022-12-18T16:01:13.344Z,5.05
2022-12-18T16:03:43.328Z,2.58
2022-12-18T16:06:13.354Z,5.70
2022-12-18T16:08:42.554Z,3.25
2022-12-18T16:11:39.095Z,6.28
2022-12-18T16:14:18.483Z,4.97
2022-12-18T16:16:48.740Z,9.88
2022-12-18T16:19:18.325Z,5.45
2022-12-18T16:21:49.009Z,5.18
2022-12-18T16:24:19.580Z,4.63
2022-12-18T16:26:49.073Z,3.70
2022-12-18T16:29:20.453Z,5.55
2022-12-18T16:31:49.773Z,4.40
2022-12-18T16:34:24.951Z,5.95
2022-12-18T16:37:04.825Z,15.65
2022-12-18T16:39:35.734Z,4.90
2022-12-18T16:42:05.993Z,8.75
2022-12-18T16:44:37.515Z,8.15
2022-12-18T16:47:06.827Z,17.75
2022-12-18T16:49:38.460Z,8.38
2022-12-18T16:52:09.318Z,9.05
2022-12-18T16:54:38.696Z,13.48
2022-12-18T16:57:08.280Z,9.07
2022-12-18T16:59:38.947Z,10.07
2022-12-18T17:02:09.022Z,8.23
2022-12-18T17:04:38.393Z,9.43
2022-12-18T17:07:07.593Z,6.53
2022-12-18T17:09:37.074Z,8.13
2022-12-18T17:12:06.820Z,8.68
2022-12-18T17:14:37.083Z,4.95
2022-12-18T17:17:20.740Z,10.25
2022-12-18T17:19:51.011Z,5.38
2022-12-18T17:22:20.740Z,12.13
2022-12-18T17:24:49.982Z,4.93
2022-12-18T17:27:19.114Z,3.80
2022-12-18T17:29:49.106Z,5.65
2022-12-18T17:32:19.987Z,6.35
2022-12-18T17:34:49.342Z,5.25
2022-12-18T17:37:18.471Z,3.67
2022-12-18T17:39:47.791Z,8.00
2022-12-18T17:42:17.209Z,5.68
2022-12-18T17:44:46.678Z,3.10
2022-12-18T17:47:16.082Z,3.08
2022-12-18T17:49:47.101Z,5.47
2022-12-18T17:52:16.260Z,4.25
2022-12-18T17:54:45.461Z,6.47
2022-12-18T17:57:15.998Z,9.60
2022-12-18T17:59:45.274Z,9.23
2022-12-18T18:02:14.741Z,15.18
2022-12-18T18:04:46.404Z,14.10
2022-12-18T18:07:15.715Z,10.93
2022-12-18T18:09:44.934Z,4.88
2022-12-18T18:12:31.614Z,10.05
2022-12-18T18:15:00.982Z,6.90
2022-12-18T18:17:30.276Z,6.10
2022-12-18T18:20:01.039Z,7.35
2022-12-18T18:22:30.229Z,5.95
2022-12-18T18:24:59.604Z,8.93
2022-12-18T18:27:30.780Z,4.32
2022-12-18T18:30:03.233Z,7.13
2022-12-18T18:32:32.751Z,4.97
2022-12-18T18:35:03.865Z,6.22
2022-12-18T18:37:33.073Z,4.50
2022-12-18T18:40:02.893Z,5.20
2022-12-18T18:42:32.213Z,3.42
2022-12-18T18:45:01.527Z,4.13
2022-12-18T18:47:31.542Z,5.75
2022-12-18T18:50:02.275Z,5.43
2022-12-18T18:52:31.474Z,10.38
2022-12-18T18:55:12.750Z,7.35
2022-12-18T18:57:43.361Z,6.35
2022-12-18T19:00:14.184Z,6.65
2022-12-18T19:02:43.862Z,4.72
2022-12-18T19:05:14.745Z,4.40
2022-12-18T19:07:45.126Z,4.82
2022-12-18T19:10:14.534Z,5.38
2022-12-18T19:13:01.537Z,3.75
2022-12-18T19:15:30.786Z,3.88
2022-12-18T19:18:00.385Z,3.65
2022-12-18T19:20:31.009Z,4.95
2022-12-18T19:23:00.341Z,5.38
2022-12-18T19:25:40.429Z,4.40
2022-12-18T19:28:21.921Z,6.25
2022-12-18T19:30:57.302Z,6.32
2022-12-18T19:33:45.385Z,3.78
2022-12-18T19:36:20.890Z,8.93
2022-12-18T19:38:51.403Z,5.07
2022-12-18T19:41:22.080Z,4.85
2022-12-18T19:43:53.147Z,3.22
2022-12-18T19:46:24.851Z,3.95
2022-12-18T19:48:54.540Z,3.88
2022-12-18T19:51:29.133Z,3.83
2022-12-18T19:54:01.654Z,4.47
2022-12-18T19:56:33.533Z,4.78
2022-12-18T19:59:04.459Z,3.17
2022-12-18T20:01:34.945Z,3.65
2022-12-18T20:04:05.043Z,3.65
2022-12-18T20:06:38.275Z,6.03
2022-12-18T20:09:09.117Z,4.00
2022-12-18T20:11:41.454Z,2.80
2022-12-18T20:14:12.144Z,4.68
2022-12-18T20:16:43.717Z,3.65
2022-12-18T20:19:16.685Z,6.07
2022-12-18T20:21:49.049Z,5.07
2022-12-18T20:24:18.842Z,4.15
2022-12-18T20:26:48.240Z,4.80
2022-12-18T20:29:17.838Z,3.08
2022-12-18T20:31:47.920Z,4.90
2022-12-18T20:37:03.434Z,3.60
2022-12-18T20:39:33.812Z,3.10
2022-12-18T20:42:03.161Z,3.50
2022-12-18T20:44:33.636Z,3.90
2022-12-18T20:47:07.469Z,3.85
2022-12-18T20:49:39.558Z,3.97
2022-12-18T20:52:15.278Z,5.97
2022-12-18T20:54:45.239Z,3.63
2022-12-18T20:57:14.627Z,3.78
2022-12-18T20:59:48.108Z,3.78
2022-12-18T21:02:26.110Z,4.72
2022-12-18T21:04:55.708Z,4.70
2022-12-18T21:07:27.759Z,3.10
2022-12-18T21:09:57.508Z,3.33
2022-12-18T21:12:41.689Z,3.85
2022-12-18T21:15:28.561Z,3.38
2022-12-18T21:17:58.406Z,3.65
2022-12-18T21:20:32.252Z,3.22
2022-12-18T21:23:15.593Z,3.35
2022-12-18T21:25:46.952Z,7.63
2022-12-18T21:28:21.495Z,3.70
2022-12-18T21:30:50.908Z,4.50
2022-12-18T21:33:20.138Z,3.45
2022-12-18T21:35:49.274Z,4.53
2022-12-18T21:38:19.842Z,4.95
2022-12-18T21:40:49.184Z,5.55
2022-12-18T21:43:36.001Z,3.85
2022-12-18T21:46:05.231Z,3.90
2022-12-18T21:48:34.457Z,3.63
2022-12-18T21:51:05.669Z,4.28
2022-12-18T21:53:37.937Z,4.57
2022-12-18T21:56:07.509Z,3.90
2022-12-18T21:58:36.883Z,3.50
2022-12-18T22:01:06.557Z,3.50
2022-12-18T22:03:36.011Z,4.20
2022-12-18T22:06:09.447Z,3.63
2022-12-18T22:08:43.704Z,4.07
2022-12-18T22:11:14.561Z,3.72
2022-12-18T22:13:45.634Z,3.72
2022-12-18T22:16:14.918Z,4.00
2022-12-18T22:18:44.329Z,3.97
2022-12-18T22:21:28.974Z,4.50
2022-12-18T22:24:01.627Z,3.97
2022-12-18T22:26:37.897Z,3.78
2022-12-18T22:29:26.699Z,4.45
2022-12-18T22:31:55.973Z,3.80
2022-12-18T22:34:25.180Z,3.60
2022-12-18T22:36:54.789Z,3.88
2022-12-18T22:39:28.516Z,4.40
2022-12-18T22:41:59.562Z,3.88
2022-12-18T22:44:28.885Z,3.70
2022-12-18T22:47:00.810Z,5.03
2022-12-18T22:49:36.636Z,3.80
2022-12-18T22:52:06.443Z,3.95
2022-12-18T22:54:37.990Z,3.70
2022-12-18T22:57:07.706Z,3.80
2022-12-18T22:59:37.211Z,4.07
2022-12-18T23:02:07.113Z,4.18
2022-12-18T23:04:36.990Z,3.50
2022-12-18T23:07:07.501Z,4.03
2022-12-18T23:09:38.438Z,4.03
2022-12-18T23:12:08.586Z,3.83
2022-12-18T23:14:37.954Z,3.88
2022-12-18T23:17:07.206Z,3.70
2022-12-18T23:19:44.080Z,4.20
2022-12-18T23:22:16.424Z,3.78
2022-12-18T23:24:47.493Z,3.55
2022-12-18T23:27:16.790Z,4.47
2022-12-18T23:29:45.990Z,3.70
2022-12-18T23:32:16.954Z,4.18
2022-12-18T23:34:46.085Z,3.85
2022-12-18T23:37:29.962Z,3.38
2022-12-18T23:40:06.896Z,3.47
2022-12-18T23:42:36.341Z,3.92
2022-12-18T23:45:07.713Z,3.70
2022-12-18T23:47:46.280Z,4.20
2022-12-18T23:50:22.119Z,3.40
2022-12-18T23:53:05.591Z,3.80
2022-12-18T23:55:40.877Z,4.00
2022-12-18T23:58:16.328Z,4.18
